createdAt,value
2019-04-30T00:00:57.313Z,3.40
2019-04-30T00:03:35.311Z,4.12
2019-04-30T00:06:07.223Z,2.72
2019-04-30T00:08:38.836Z,3.08
2019-04-30T00:11:05.438Z,3.27
2019-04-30T00:13:35.918Z,3.25
2019-04-30T00:16:05.453Z,3.27
2019-04-30T00:18:35.898Z,3.00
2019-04-30T00:21:05.443Z,3.27
2019-04-30T00:23:35.992Z,3.20
2019-04-30T00:26:10.112Z,2.92
2019-04-30T00:28:39.339Z,4.00
2019-04-30T00:31:05.941Z,3.12
2019-04-30T00:33:35.346Z,2.83
2019-04-30T00:36:05.120Z,3.22
2019-04-30T00:38:37.687Z,3.47
2019-04-30T00:41:06.974Z,3.20
2019-04-30T00:43:37.757Z,3.15
2019-04-30T00:46:06.074Z,3.33
2019-04-30T00:48:35.688Z,3.17
2019-04-30T00:51:07.527Z,2.98
2019-04-30T00:53:35.911Z,3.45
2019-04-30T00:56:05.706Z,3.15
2019-04-30T00:58:35.651Z,3.40
2019-04-30T01:01:17.244Z,3.30
2019-04-30T01:03:49.547Z,3.70
2019-04-30T01:06:26.765Z,3.40
2019-04-30T01:08:48.634Z,3.40
2019-04-30T01:11:17.636Z,3.50
2019-04-30T01:13:50.985Z,3.17
2019-04-30T01:16:16.956Z,3.30
2019-04-30T01:18:45.856Z,3.80
2019-04-30T01:21:14.750Z,3.60
2019-04-30T01:23:51.779Z,3.52
2019-04-30T01:26:14.484Z,3.25
2019-04-30T01:28:44.805Z,3.67
2019-04-30T01:31:13.707Z,3.30
2019-04-30T01:33:42.601Z,4.10
2019-04-30T01:36:13.310Z,3.70
2019-04-30T01:38:44.739Z,3.90
2019-04-30T01:41:12.663Z,3.37
2019-04-30T01:43:41.520Z,3.70
2019-04-30T01:46:13.849Z,3.58
2019-04-30T01:48:43.750Z,3.85
2019-04-30T01:51:13.310Z,3.72
2019-04-30T01:53:43.644Z,4.17
2019-04-30T01:56:14.118Z,4.10
2019-04-30T01:58:44.546Z,3.47
2019-04-30T02:01:28.624Z,3.37
2019-04-30T02:03:58.584Z,3.37
2019-04-30T02:06:29.325Z,3.75
2019-04-30T02:08:59.329Z,3.47
2019-04-30T02:11:28.867Z,3.55
2019-04-30T02:13:59.147Z,3.27
2019-04-30T02:16:28.926Z,3.80
2019-04-30T02:18:59.647Z,3.45
2019-04-30T02:21:30.046Z,3.20
2019-04-30T02:23:59.180Z,3.55
2019-04-30T02:26:28.588Z,4.00
2019-04-30T02:28:59.333Z,3.30
2019-04-30T02:31:30.772Z,4.05
2019-04-30T02:34:06.216Z,3.37
2019-04-30T02:36:49.979Z,3.98
2019-04-30T02:39:20.357Z,3.62
2019-04-30T02:41:50.642Z,4.03
2019-04-30T02:44:20.788Z,4.03
2019-04-30T02:46:52.001Z,4.05
2019-04-30T02:49:22.551Z,3.40
2019-04-30T02:51:53.145Z,3.92
2019-04-30T02:54:26.562Z,3.70
2019-04-30T02:56:59.418Z,3.40
2019-04-30T02:59:29.966Z,3.50
2019-04-30T03:01:59.727Z,3.90
2019-04-30T03:04:29.351Z,3.30
2019-04-30T03:06:59.762Z,3.37
2019-04-30T03:09:29.702Z,3.27
2019-04-30T03:12:00.169Z,3.10
2019-04-30T03:14:30.032Z,3.60
2019-04-30T03:17:00.827Z,4.12
2019-04-30T03:19:50.039Z,3.55
2019-04-30T03:22:20.305Z,3.70
2019-04-30T03:24:50.079Z,3.37
2019-04-30T03:27:20.660Z,3.75
2019-04-30T03:29:50.450Z,3.30
2019-04-30T03:32:22.326Z,3.60
2019-04-30T03:34:51.811Z,3.85
2019-04-30T03:37:20.839Z,3.50
2019-04-30T03:39:49.837Z,3.67
2019-04-30T03:42:19.944Z,3.30
2019-04-30T03:44:49.652Z,3.40
2019-04-30T03:47:20.206Z,3.55
2019-04-30T03:49:49.875Z,3.62
2019-04-30T03:52:19.695Z,3.58
2019-04-30T03:54:49.463Z,3.62
2019-04-30T03:57:20.375Z,4.10
2019-04-30T03:59:49.978Z,3.45
2019-04-30T04:02:21.058Z,3.77
2019-04-30T04:05:00.901Z,4.10
2019-04-30T04:07:42.060Z,3.87
2019-04-30T04:10:12.591Z,4.20
2019-04-30T04:12:41.502Z,3.90
2019-04-30T04:15:10.718Z,3.65
2019-04-30T04:17:39.960Z,4.10
2019-04-30T04:20:10.556Z,4.10
2019-04-30T04:22:40.249Z,4.20
2019-04-30T04:25:13.053Z,3.80
2019-04-30T04:27:40.065Z,4.20
2019-04-30T04:30:10.609Z,3.85
2019-04-30T04:32:40.647Z,3.67
2019-04-30T04:35:12.676Z,3.27
2019-04-30T04:37:40.118Z,3.60
2019-04-30T04:40:09.542Z,3.50
2019-04-30T04:42:39.540Z,3.98
2019-04-30T04:45:09.873Z,3.92
2019-04-30T04:47:40.259Z,3.77
2019-04-30T04:50:10.564Z,3.55
2019-04-30T04:52:39.707Z,3.95
2019-04-30T04:55:10.042Z,3.30
2019-04-30T04:57:40.051Z,3.95
2019-04-30T05:00:10.504Z,3.92
2019-04-30T05:02:41.226Z,3.47
2019-04-30T05:05:10.365Z,3.58
2019-04-30T05:07:39.988Z,3.37
2019-04-30T05:10:09.615Z,3.00
2019-04-30T05:12:39.834Z,3.77
2019-04-30T05:15:09.729Z,3.92
2019-04-30T05:17:39.734Z,3.60
2019-04-30T05:20:10.155Z,3.95
2019-04-30T05:22:39.160Z,3.80
2019-04-30T05:25:08.994Z,3.37
2019-04-30T05:27:39.269Z,3.47
2019-04-30T05:30:09.710Z,3.67
2019-04-30T05:32:39.303Z,3.70
2019-04-30T05:35:09.542Z,3.92
2019-04-30T05:37:38.684Z,3.67
2019-04-30T05:40:09.150Z,4.08
2019-04-30T05:42:38.684Z,3.95
2019-04-30T05:45:09.381Z,3.77
2019-04-30T05:47:39.001Z,4.17
2019-04-30T05:50:08.906Z,3.72
2019-04-30T05:52:39.768Z,4.03
2019-04-30T05:55:08.870Z,3.60
2019-04-30T05:57:40.753Z,4.05
2019-04-30T06:00:10.220Z,3.60
2019-04-30T06:02:40.051Z,3.55
2019-04-30T06:05:09.207Z,3.77
2019-04-30T06:07:39.467Z,3.40
2019-04-30T06:10:16.754Z,3.92
2019-04-30T06:12:56.319Z,3.77
2019-04-30T06:15:32.955Z,3.55
2019-04-30T06:18:10.713Z,3.67
2019-04-30T06:20:32.275Z,3.30
2019-04-30T06:23:01.098Z,3.52
2019-04-30T06:25:37.336Z,3.67
2019-04-30T06:28:00.708Z,3.30
2019-04-30T06:30:30.689Z,4.58
2019-04-30T06:33:00.051Z,3.85
2019-04-30T06:35:29.363Z,3.22
2019-04-30T06:37:59.077Z,3.45
2019-04-30T06:40:29.382Z,3.50
2019-04-30T06:43:00.630Z,4.05
2019-04-30T06:45:29.884Z,2.92
2019-04-30T06:48:00.331Z,3.85
2019-04-30T06:50:29.261Z,2.85
2019-04-30T06:53:01.020Z,3.15
2019-04-30T06:55:30.642Z,3.40
2019-04-30T06:58:11.550Z,3.12
2019-04-30T07:00:40.044Z,3.47
2019-04-30T07:03:09.588Z,3.27
2019-04-30T07:05:39.412Z,3.10
2019-04-30T07:08:36.180Z,3.17
2019-04-30T07:11:14.778Z,3.37
2019-04-30T07:13:45.285Z,3.65
2019-04-30T07:16:14.099Z,3.60
2019-04-30T07:18:42.916Z,3.50
2019-04-30T07:21:11.769Z,3.27
2019-04-30T07:23:40.509Z,3.60
2019-04-30T07:26:13.747Z,3.47
2019-04-30T07:28:44.806Z,3.70
2019-04-30T07:31:14.487Z,3.20
2019-04-30T07:33:41.144Z,4.10
2019-04-30T07:36:10.061Z,3.17
2019-04-30T07:38:45.744Z,3.25
2019-04-30T07:41:09.674Z,3.47
2019-04-30T07:43:39.261Z,3.50
2019-04-30T07:46:09.315Z,3.10
2019-04-30T07:48:40.189Z,3.50
2019-04-30T07:51:10.353Z,3.27
2019-04-30T07:53:40.464Z,3.60
2019-04-30T07:56:23.940Z,3.27
2019-04-30T07:58:39.764Z,3.75
2019-04-30T08:01:10.411Z,3.90
2019-04-30T08:03:52.940Z,3.92
2019-04-30T08:06:22.716Z,3.83
2019-04-30T08:08:57.023Z,3.40
2019-04-30T08:11:25.657Z,3.37
2019-04-30T08:13:52.766Z,3.58
2019-04-30T08:16:21.658Z,3.40
2019-04-30T08:18:50.433Z,3.50
2019-04-30T08:21:19.224Z,3.47
2019-04-30T08:23:48.969Z,3.12
2019-04-30T08:26:18.755Z,3.70
2019-04-30T08:28:48.763Z,3.25
2019-04-30T08:31:19.592Z,3.40
2019-04-30T08:33:49.103Z,3.45
2019-04-30T08:36:19.686Z,3.15
2019-04-30T08:38:49.552Z,4.12
2019-04-30T08:41:19.280Z,3.37
2019-04-30T08:43:49.705Z,3.50
2019-04-30T08:46:19.153Z,4.10
2019-04-30T08:48:51.716Z,3.42
2019-04-30T08:51:19.242Z,3.75
2019-04-30T08:53:48.722Z,3.45
2019-04-30T08:56:21.582Z,3.50
2019-04-30T08:58:49.268Z,3.52
2019-04-30T09:01:19.478Z,4.12
2019-04-30T09:03:50.890Z,3.52
2019-04-30T09:06:20.866Z,3.80
2019-04-30T09:08:50.161Z,3.65
2019-04-30T09:11:24.619Z,3.45
2019-04-30T09:13:49.655Z,3.30
2019-04-30T09:16:19.427Z,3.65
2019-04-30T09:18:49.483Z,3.92
2019-04-30T09:21:18.751Z,3.87
2019-04-30T09:23:51.836Z,3.58
2019-04-30T09:26:18.701Z,3.55
2019-04-30T09:28:49.416Z,3.70
2019-04-30T09:31:19.768Z,3.58
2019-04-30T09:33:49.219Z,3.70
2019-04-30T09:36:20.544Z,3.40
2019-04-30T09:38:48.803Z,4.00
2019-04-30T09:41:19.264Z,3.42
2019-04-30T09:43:49.374Z,3.42
2019-04-30T09:46:26.290Z,3.20
2019-04-30T09:48:50.683Z,3.47
2019-04-30T09:51:24.483Z,3.08
2019-04-30T09:53:59.054Z,3.50
2019-04-30T09:56:23.182Z,3.45
2019-04-30T09:58:52.165Z,3.15
2019-04-30T10:01:22.134Z,3.35
2019-04-30T10:04:11.024Z,3.60
2019-04-30T10:06:40.471Z,4.58
2019-04-30T10:09:11.070Z,3.95
2019-04-30T10:11:56.511Z,4.20
2019-04-30T10:14:25.547Z,4.00
2019-04-30T10:16:55.934Z,4.10
2019-04-30T10:19:24.726Z,4.03
2019-04-30T10:21:53.511Z,3.90
2019-04-30T10:24:22.315Z,3.50
2019-04-30T10:26:51.586Z,3.60
2019-04-30T10:29:22.107Z,3.10
2019-04-30T10:31:51.383Z,3.85
2019-04-30T10:34:20.286Z,3.62
2019-04-30T10:36:49.563Z,2.98
2019-04-30T10:39:21.389Z,4.45
2019-04-30T10:41:48.900Z,4.10
2019-04-30T10:44:18.798Z,3.70
2019-04-30T10:46:47.851Z,3.60
2019-04-30T10:49:18.932Z,4.30
2019-04-30T10:51:47.118Z,4.42
2019-04-30T10:54:23.990Z,4.03
2019-04-30T10:56:46.372Z,4.00
2019-04-30T10:59:15.138Z,3.77
2019-04-30T11:01:43.935Z,4.20
2019-04-30T11:04:13.799Z,3.92
2019-04-30T11:06:42.620Z,3.92
2019-04-30T11:09:11.630Z,4.28
2019-04-30T11:11:40.518Z,4.15
2019-04-30T11:14:09.289Z,3.50
2019-04-30T11:16:38.097Z,3.40
2019-04-30T11:19:09.150Z,3.92
2019-04-30T11:21:37.443Z,4.58
2019-04-30T11:24:06.630Z,3.25
2019-04-30T11:26:35.973Z,4.05
2019-04-30T11:29:05.359Z,4.15
2019-04-30T11:31:41.973Z,3.33
2019-04-30T11:34:11.161Z,4.42
2019-04-30T11:36:40.053Z,3.27
2019-04-30T11:39:11.098Z,4.10
2019-04-30T11:41:40.126Z,4.17
2019-04-30T11:44:09.317Z,3.83
2019-04-30T11:46:59.557Z,3.65
2019-04-30T11:49:28.322Z,3.62
2019-04-30T11:51:57.093Z,3.70
2019-04-30T11:54:25.869Z,3.40
2019-04-30T11:56:54.753Z,3.75
2019-04-30T11:59:23.558Z,4.08
2019-04-30T12:01:53.963Z,3.62
2019-04-30T12:04:22.751Z,3.50
2019-04-30T12:06:52.709Z,3.70
2019-04-30T12:09:25.986Z,3.98
2019-04-30T12:11:54.838Z,3.35
2019-04-30T12:14:23.598Z,3.83
2019-04-30T12:16:52.355Z,3.20
2019-04-30T12:19:21.177Z,3.50
2019-04-30T12:21:50.067Z,2.95
2019-04-30T12:24:18.838Z,3.52
2019-04-30T12:26:48.889Z,3.60
2019-04-30T12:29:19.129Z,3.90
2019-04-30T12:31:48.011Z,3.58
2019-04-30T12:34:16.847Z,3.75
2019-04-30T12:36:45.577Z,3.47
2019-04-30T12:39:14.397Z,3.62
2019-04-30T12:41:43.356Z,4.40
2019-04-30T12:44:12.173Z,3.75
2019-04-30T12:46:41.011Z,3.87
2019-04-30T12:49:13.785Z,3.58
2019-04-30T12:51:50.538Z,3.40
2019-04-30T12:54:36.256Z,3.77
2019-04-30T12:57:06.778Z,3.60
2019-04-30T12:59:35.827Z,3.45
2019-04-30T13:02:04.896Z,3.72
2019-04-30T13:04:33.629Z,3.35
2019-04-30T13:07:03.067Z,3.20
2019-04-30T13:09:33.078Z,3.62
2019-04-30T13:12:02.715Z,3.40
2019-04-30T13:14:32.376Z,3.75
2019-04-30T13:17:01.947Z,3.50
2019-04-30T13:19:30.776Z,3.40
2019-04-30T13:21:59.656Z,3.17
2019-04-30T13:24:31.156Z,4.40
2019-04-30T13:26:59.503Z,3.90
2019-04-30T13:29:42.324Z,3.77
2019-04-30T13:32:11.291Z,3.75
2019-04-30T13:34:53.984Z,4.00
2019-04-30T13:37:22.832Z,4.60
2019-04-30T13:40:09.805Z,4.65
2019-04-30T13:42:49.134Z,4.05
2019-04-30T13:45:18.655Z,4.80
2019-04-30T13:47:48.909Z,4.47
2019-04-30T13:50:20.983Z,5.22
2019-04-30T13:52:48.899Z,4.17
2019-04-30T13:55:19.227Z,4.30
2019-04-30T13:57:48.070Z,4.35
2019-04-30T14:00:18.929Z,3.90
2019-04-30T14:02:49.398Z,4.10
2019-04-30T14:05:18.736Z,3.83
2019-04-30T14:07:59.834Z,3.20
2019-04-30T14:10:30.635Z,3.62
2019-04-30T14:13:01.231Z,4.08
2019-04-30T14:15:30.246Z,4.17
2019-04-30T14:17:59.685Z,4.17
2019-04-30T14:20:28.744Z,4.03
2019-04-30T14:22:57.665Z,3.58
2019-04-30T14:25:26.740Z,3.90
2019-04-30T14:27:55.521Z,3.77
2019-04-30T14:30:24.488Z,3.60
2019-04-30T14:32:53.260Z,3.20
2019-04-30T14:35:22.414Z,3.98
2019-04-30T14:37:51.166Z,3.55
2019-04-30T14:40:20.573Z,3.83
2019-04-30T14:42:51.638Z,3.60
2019-04-30T14:45:23.000Z,3.98
2019-04-30T14:47:54.819Z,3.60
2019-04-30T14:50:25.737Z,3.58
2019-04-30T14:52:56.365Z,3.98
2019-04-30T14:55:44.891Z,3.98
2019-04-30T14:58:20.386Z,4.10
2019-04-30T15:00:50.441Z,3.65
2019-04-30T15:03:20.848Z,4.75
2019-04-30T15:05:51.709Z,3.95
2019-04-30T15:08:20.063Z,4.25
2019-04-30T15:10:48.893Z,4.33
2019-04-30T15:13:19.549Z,3.70
2019-04-30T15:15:49.160Z,3.70
2019-04-30T15:18:19.184Z,4.95
2019-04-30T15:20:49.799Z,3.42
2019-04-30T15:23:21.872Z,5.00
2019-04-30T15:25:50.911Z,3.62
2019-04-30T15:28:19.699Z,2.85
2019-04-30T15:30:48.899Z,3.77
2019-04-30T15:33:22.315Z,3.40
2019-04-30T15:35:51.118Z,4.13
2019-04-30T15:38:21.569Z,3.30
2019-04-30T15:40:50.434Z,3.50
2019-04-30T15:43:19.355Z,3.83
2019-04-30T15:45:49.394Z,4.30
2019-04-30T15:48:19.659Z,3.52
2019-04-30T15:50:49.279Z,4.10
2019-04-30T15:53:19.394Z,3.90
2019-04-30T15:55:48.367Z,3.62
2019-04-30T15:58:28.966Z,3.92
2019-04-30T16:00:59.451Z,3.60
2019-04-30T16:03:36.282Z,6.28
2019-04-30T16:06:05.142Z,3.50
2019-04-30T16:08:47.895Z,3.72
2019-04-30T16:11:20.888Z,3.12
2019-04-30T16:14:08.445Z,3.52
2019-04-30T16:16:38.989Z,4.55
2019-04-30T16:19:09.146Z,3.70
2019-04-30T16:21:38.077Z,3.52
2019-04-30T16:24:08.608Z,3.70
2019-04-30T16:26:48.643Z,3.67
2019-04-30T16:29:09.829Z,4.20
2019-04-30T16:31:39.160Z,4.40
2019-04-30T16:34:08.078Z,3.77
2019-04-30T16:36:38.895Z,3.80
2019-04-30T16:39:11.493Z,3.80
2019-04-30T16:41:40.779Z,3.37
2019-04-30T16:44:10.025Z,4.00
2019-04-30T16:46:39.537Z,5.42
2019-04-30T16:49:10.195Z,4.05
2019-04-30T16:51:38.824Z,3.85
2019-04-30T16:54:08.668Z,3.72
2019-04-30T16:56:38.674Z,3.72
2019-04-30T16:59:09.250Z,3.47
2019-04-30T17:01:38.094Z,3.55
2019-04-30T17:04:19.195Z,4.70
2019-04-30T17:06:52.905Z,4.90
2019-04-30T17:09:41.755Z,6.53
2019-04-30T17:12:19.733Z,3.75
2019-04-30T17:14:50.247Z,3.85
2019-04-30T17:17:19.026Z,3.62
2019-04-30T17:19:49.198Z,3.62
2019-04-30T17:22:18.298Z,3.75
2019-04-30T17:24:48.984Z,4.30
2019-04-30T17:27:21.988Z,3.58
2019-04-30T17:29:47.975Z,3.98
2019-04-30T17:32:18.536Z,3.98
2019-04-30T17:34:49.213Z,3.87
2019-04-30T17:37:19.013Z,3.45
2019-04-30T17:39:49.459Z,4.17
2019-04-30T17:42:18.567Z,4.50
2019-04-30T17:44:56.131Z,5.05
2019-04-30T17:47:18.961Z,4.25
2019-04-30T17:49:48.435Z,5.47
2019-04-30T17:52:19.034Z,4.17
2019-04-30T17:54:49.231Z,4.40
2019-04-30T17:57:29.771Z,4.28
2019-04-30T17:59:50.839Z,3.90
2019-04-30T18:02:21.184Z,5.05
2019-04-30T18:04:49.975Z,4.45
2019-04-30T18:07:19.804Z,4.65
2019-04-30T18:09:48.843Z,5.33
2019-04-30T18:12:19.452Z,4.78
2019-04-30T18:14:49.502Z,4.15
2019-04-30T18:17:18.472Z,4.12
2019-04-30T18:20:01.102Z,4.30
2019-04-30T18:22:41.301Z,4.58
2019-04-30T18:25:28.106Z,4.55
2019-04-30T18:28:09.592Z,5.83
2019-04-30T18:30:39.913Z,5.03
2019-04-30T18:33:09.870Z,4.87
2019-04-30T18:35:38.995Z,6.17
2019-04-30T18:38:09.646Z,5.62
2019-04-30T18:40:39.715Z,5.47
2019-04-30T18:43:08.964Z,6.33
2019-04-30T18:45:39.586Z,6.15
2019-04-30T18:48:09.706Z,6.50
2019-04-30T18:50:38.723Z,6.67
2019-04-30T18:53:09.184Z,6.28
2019-04-30T18:55:38.064Z,5.97
2019-04-30T18:58:08.774Z,6.20
2019-04-30T19:00:42.011Z,7.33
2019-04-30T19:03:11.203Z,6.33
2019-04-30T19:05:41.589Z,6.33
2019-04-30T19:08:20.868Z,6.50
2019-04-30T19:10:52.207Z,7.10
2019-04-30T19:13:34.489Z,6.37
2019-04-30T19:16:25.342Z,6.37
2019-04-30T19:18:53.328Z,6.62
2019-04-30T19:21:22.807Z,7.25
2019-04-30T19:23:51.655Z,6.35
2019-04-30T19:26:20.896Z,6.42
2019-04-30T19:28:50.002Z,6.70
2019-04-30T19:31:19.955Z,6.97
2019-04-30T19:33:49.017Z,7.00
2019-04-30T19:36:20.696Z,6.95
2019-04-30T19:38:50.676Z,7.60
2019-04-30T19:41:19.509Z,8.33
2019-04-30T19:43:50.070Z,8.58
2019-04-30T19:46:19.081Z,8.88
2019-04-30T19:48:50.493Z,9.30
2019-04-30T19:51:19.742Z,10.18
2019-04-30T19:53:49.039Z,11.70
2019-04-30T19:56:18.303Z,12.75
2019-04-30T19:58:59.173Z,12.68
2019-04-30T20:01:19.003Z,12.40
2019-04-30T20:03:47.807Z,12.35
2019-04-30T20:06:16.563Z,11.08
2019-04-30T20:08:45.515Z,11.63
2019-04-30T20:11:14.344Z,12.45
2019-04-30T20:13:43.157Z,12.35
2019-04-30T20:16:11.979Z,12.37
2019-04-30T20:18:40.795Z,12.40
2019-04-30T20:21:11.332Z,11.78
2019-04-30T20:23:40.216Z,11.90
2019-04-30T20:26:09.104Z,12.33
2019-04-30T20:28:41.445Z,12.15
2019-04-30T20:31:09.044Z,12.03
2019-04-30T20:33:38.955Z,12.13
2019-04-30T20:36:09.194Z,13.70
2019-04-30T20:38:42.575Z,11.15
2019-04-30T20:41:12.514Z,10.40
2019-04-30T20:43:41.327Z,10.53
2019-04-30T20:46:10.127Z,10.88
2019-04-30T20:48:39.357Z,8.73
2019-04-30T20:51:09.657Z,9.93
2019-04-30T20:53:39.121Z,12.63
2019-04-30T20:56:09.301Z,11.97
2019-04-30T20:58:44.688Z,11.53
2019-04-30T21:01:09.683Z,11.53
2019-04-30T21:03:39.628Z,11.48
2019-04-30T21:06:08.885Z,11.45
2019-04-30T21:08:37.852Z,12.40
2019-04-30T21:11:06.656Z,13.30
2019-04-30T21:13:35.555Z,12.23
2019-04-30T21:16:04.438Z,9.80
2019-04-30T21:18:33.269Z,9.78
2019-04-30T21:21:02.059Z,9.60
2019-04-30T21:23:30.863Z,10.70
2019-04-30T21:25:59.754Z,8.60
2019-04-30T21:28:29.716Z,8.18
2019-04-30T21:31:00.341Z,8.00
2019-04-30T21:33:42.730Z,7.50
2019-04-30T21:36:16.129Z,8.03
2019-04-30T21:38:44.861Z,7.33
2019-04-30T21:41:13.671Z,6.85
2019-04-30T21:43:42.610Z,7.05
2019-04-30T21:46:11.497Z,6.37
2019-04-30T21:48:40.501Z,5.53
2019-04-30T21:51:09.560Z,6.10
2019-04-30T21:53:39.602Z,5.85
2019-04-30T21:56:08.668Z,5.83
2019-04-30T21:58:39.259Z,5.78
2019-04-30T22:01:12.465Z,5.10
2019-04-30T22:03:43.480Z,5.47
2019-04-30T22:06:12.481Z,5.75
2019-04-30T22:08:41.381Z,6.03
2019-04-30T22:11:10.391Z,5.53
2019-04-30T22:13:40.043Z,6.03
2019-04-30T22:16:09.863Z,6.00
2019-04-30T22:18:38.682Z,6.08
2019-04-30T22:21:07.439Z,5.90
2019-04-30T22:23:36.282Z,6.42
2019-04-30T22:26:05.274Z,5.55
2019-04-30T22:28:34.277Z,6.17
2019-04-30T22:31:03.375Z,6.08
2019-04-30T22:33:32.167Z,6.37
2019-04-30T22:36:02.696Z,5.80
2019-04-30T22:38:33.137Z,6.05
2019-04-30T22:41:01.900Z,5.97
2019-04-30T22:43:30.771Z,6.35
2019-04-30T22:46:13.557Z,6.30
2019-04-30T22:48:42.338Z,6.20
2019-04-30T22:51:11.137Z,6.28
2019-04-30T22:53:40.219Z,6.00
2019-04-30T22:56:08.935Z,6.70
2019-04-30T22:58:38.214Z,6.95
2019-04-30T23:01:24.907Z,7.15
2019-04-30T23:03:55.445Z,6.30
2019-04-30T23:06:24.330Z,6.67
2019-04-30T23:08:53.098Z,5.75
2019-04-30T23:11:21.884Z,7.03
2019-04-30T23:13:50.912Z,6.62
2019-04-30T23:16:19.841Z,7.05
2019-04-30T23:18:48.808Z,6.50
2019-04-30T23:21:17.602Z,6.42
2019-04-30T23:23:46.491Z,7.10
2019-04-30T23:26:15.285Z,7.15
2019-04-30T23:28:44.286Z,6.30
2019-04-30T23:31:13.275Z,6.65
2019-04-30T23:33:42.282Z,7.10
2019-04-30T23:36:11.082Z,6.17
2019-04-30T23:38:39.859Z,6.58
2019-04-30T23:41:08.639Z,6.87
2019-04-30T23:43:37.422Z,6.62
2019-04-30T23:46:06.203Z,6.95
2019-04-30T23:48:34.948Z,8.03
2019-04-30T23:51:03.929Z,6.47
2019-04-30T23:53:33.029Z,7.00
2019-04-30T23:56:01.923Z,6.85
2019-04-30T23:58:30.813Z,7.15
